sensor_id;sensor_type;location;lat;lon;timestamp;P1;durP1;ratioP1;P2;durP2;ratioP2
3791;SDS011;1911;53.768;11.474;2023-08-07T00:01:20;10.13;;;3.70;;
3791;SDS011;1911;53.768;11.474;2023-08-07T00:03:45;4.70;;;3.50;;
3791;SDS011;1911;53.768;11.474;2023-08-07T00:06:12;7.30;;;4.10;;
3791;SDS011;1911;53.768;11.474;2023-08-07T00:08:38;5.10;;;2.90;;
3791;SDS011;1911;53.768;11.474;2023-08-07T00:11:04;5.10;;;3.33;;
3791;SDS011;1911;53.768;11.474;2023-08-07T00:13:30;4.57;;;2.90;;
3791;SDS011;1911;53.768;11.474;2023-08-07T00:15:56;4.40;;;3.60;;
3791;SDS011;1911;53.768;11.474;2023-08-07T00:18:21;7.80;;;3.80;;
3791;SDS011;1911;53.768;11.474;2023-08-07T00:20:47;6.77;;;3.90;;
3791;SDS011;1911;53.768;11.474;2023-08-07T00:23:12;7.83;;;4.63;;
3791;SDS011;1911;53.768;11.474;2023-08-07T00:25:38;5.20;;;3.87;;
3791;SDS011;1911;53.768;11.474;2023-08-07T00:28:03;7.67;;;3.40;;
3791;SDS011;1911;53.768;11.474;2023-08-07T00:30:29;7.20;;;4.20;;
3791;SDS011;1911;53.768;11.474;2023-08-07T00:32:55;5.53;;;3.70;;
3791;SDS011;1911;53.768;11.474;2023-08-07T00:35:20;6.67;;;3.90;;
3791;SDS011;1911;53.768;11.474;2023-08-07T00:37:46;7.20;;;3.37;;
3791;SDS011;1911;53.768;11.474;2023-08-07T00:40:11;6.00;;;3.80;;
3791;SDS011;1911;53.768;11.474;2023-08-07T00:42:37;4.60;;;3.27;;
3791;SDS011;1911;53.768;11.474;2023-08-07T00:45:02;4.87;;;3.40;;
3791;SDS011;1911;53.768;11.474;2023-08-07T00:47:29;7.07;;;3.70;;
3791;SDS011;1911;53.768;11.474;2023-08-07T00:49:55;8.83;;;5.10;;
3791;SDS011;1911;53.768;11.474;2023-08-07T00:52:22;5.27;;;3.60;;
3791;SDS011;1911;53.768;11.474;2023-08-07T00:54:48;6.70;;;3.50;;
3791;SDS011;1911;53.768;11.474;2023-08-07T00:57:14;4.10;;;3.10;;
3791;SDS011;1911;53.768;11.474;2023-08-07T00:59:40;4.43;;;3.17;;
3791;SDS011;1911;53.768;11.474;2023-08-07T01:02:07;5.03;;;3.33;;
3791;SDS011;1911;53.768;11.474;2023-08-07T01:04:33;5.80;;;2.93;;
3791;SDS011;1911;53.768;11.474;2023-08-07T01:06:59;6.87;;;3.20;;
3791;SDS011;1911;53.768;11.474;2023-08-07T01:09:25;8.10;;;3.47;;
3791;SDS011;1911;53.768;11.474;2023-08-07T01:14:28;4.80;;;3.30;;
3791;SDS011;1911;53.768;11.474;2023-08-07T01:17:16;3.73;;;2.70;;
3791;SDS011;1911;53.768;11.474;2023-08-07T01:19:43;7.23;;;3.93;;
3791;SDS011;1911;53.768;11.474;2023-08-07T01:22:10;5.80;;;3.60;;
3791;SDS011;1911;53.768;11.474;2023-08-07T01:24:38;6.93;;;4.50;;
3791;SDS011;1911;53.768;11.474;2023-08-07T01:32:17;5.90;;;3.83;;
3791;SDS011;1911;53.768;11.474;2023-08-07T01:34:48;5.83;;;3.30;;
3791;SDS011;1911;53.768;11.474;2023-08-07T01:37:15;4.13;;;2.70;;
3791;SDS011;1911;53.768;11.474;2023-08-07T01:39:42;8.20;;;3.23;;
3791;SDS011;1911;53.768;11.474;2023-08-07T01:42:10;3.50;;;2.80;;
3791;SDS011;1911;53.768;11.474;2023-08-07T01:44:37;7.00;;;2.50;;
3791;SDS011;1911;53.768;11.474;2023-08-07T01:47:03;12.73;;;2.87;;
3791;SDS011;1911;53.768;11.474;2023-08-07T01:49:28;3.30;;;2.77;;
3791;SDS011;1911;53.768;11.474;2023-08-07T01:51:54;4.10;;;2.80;;
3791;SDS011;1911;53.768;11.474;2023-08-07T01:54:19;6.17;;;3.23;;
3791;SDS011;1911;53.768;11.474;2023-08-07T01:56:45;3.63;;;2.80;;
3791;SDS011;1911;53.768;11.474;2023-08-07T01:59:10;6.47;;;2.97;;
3791;SDS011;1911;53.768;11.474;2023-08-07T02:01:36;5.43;;;2.60;;
3791;SDS011;1911;53.768;11.474;2023-08-07T02:04:02;3.40;;;3.00;;
3791;SDS011;1911;53.768;11.474;2023-08-07T02:06:27;3.60;;;2.43;;
3791;SDS011;1911;53.768;11.474;2023-08-07T02:08:53;5.50;;;3.23;;
3791;SDS011;1911;53.768;11.474;2023-08-07T02:11:18;5.73;;;3.10;;
3791;SDS011;1911;53.768;11.474;2023-08-07T02:13:44;4.17;;;2.37;;
3791;SDS011;1911;53.768;11.474;2023-08-07T02:16:09;4.57;;;2.27;;
3791;SDS011;1911;53.768;11.474;2023-08-07T02:18:35;6.23;;;3.10;;
3791;SDS011;1911;53.768;11.474;2023-08-07T02:21:00;3.23;;;2.43;;
3791;SDS011;1911;53.768;11.474;2023-08-07T02:23:26;5.80;;;2.90;;
3791;SDS011;1911;53.768;11.474;2023-08-07T02:25:53;5.87;;;2.57;;
3791;SDS011;1911;53.768;11.474;2023-08-07T02:28:19;4.10;;;2.23;;
3791;SDS011;1911;53.768;11.474;2023-08-07T02:30:45;5.00;;;2.53;;
3791;SDS011;1911;53.768;11.474;2023-08-07T02:33:13;4.40;;;2.83;;
3791;SDS011;1911;53.768;11.474;2023-08-07T02:35:39;4.10;;;2.93;;
3791;SDS011;1911;53.768;11.474;2023-08-07T02:38:05;4.43;;;2.73;;
3791;SDS011;1911;53.768;11.474;2023-08-07T02:40:30;5.10;;;2.30;;
3791;SDS011;1911;53.768;11.474;2023-08-07T02:42:56;4.93;;;2.70;;
3791;SDS011;1911;53.768;11.474;2023-08-07T02:45:21;6.23;;;2.17;;
3791;SDS011;1911;53.768;11.474;2023-08-07T02:47:47;5.10;;;3.33;;
3791;SDS011;1911;53.768;11.474;2023-08-07T02:50:13;5.13;;;2.10;;
3791;SDS011;1911;53.768;11.474;2023-08-07T02:52:38;5.00;;;2.83;;
3791;SDS011;1911;53.768;11.474;2023-08-07T02:55:04;3.57;;;2.13;;
3791;SDS011;1911;53.768;11.474;2023-08-07T02:57:30;3.13;;;2.37;;
3791;SDS011;1911;53.768;11.474;2023-08-07T02:59:55;6.77;;;2.47;;
3791;SDS011;1911;53.768;11.474;2023-08-07T03:02:21;8.10;;;2.50;;
3791;SDS011;1911;53.768;11.474;2023-08-07T03:04:46;3.07;;;2.40;;
3791;SDS011;1911;53.768;11.474;2023-08-07T03:07:12;3.07;;;2.20;;
3791;SDS011;1911;53.768;11.474;2023-08-07T03:09:38;4.93;;;2.80;;
3791;SDS011;1911;53.768;11.474;2023-08-07T03:12:03;2.40;;;1.80;;
3791;SDS011;1911;53.768;11.474;2023-08-07T03:14:30;3.90;;;2.47;;
3791;SDS011;1911;53.768;11.474;2023-08-07T03:16:56;4.50;;;2.57;;
3791;SDS011;1911;53.768;11.474;2023-08-07T03:19:22;9.00;;;2.40;;
3791;SDS011;1911;53.768;11.474;2023-08-07T03:21:47;6.70;;;2.33;;
3791;SDS011;1911;53.768;11.474;2023-08-07T03:24:13;2.90;;;2.17;;
3791;SDS011;1911;53.768;11.474;2023-08-07T03:26:38;3.00;;;1.77;;
3791;SDS011;1911;53.768;11.474;2023-08-07T03:29:04;3.40;;;2.00;;
3791;SDS011;1911;53.768;11.474;2023-08-07T03:31:29;5.70;;;1.80;;
3791;SDS011;1911;53.768;11.474;2023-08-07T03:33:55;4.27;;;2.13;;
3791;SDS011;1911;53.768;11.474;2023-08-07T03:36:21;5.80;;;1.60;;
3791;SDS011;1911;53.768;11.474;2023-08-07T03:38:47;2.70;;;1.90;;
3791;SDS011;1911;53.768;11.474;2023-08-07T03:41:12;2.50;;;1.67;;
3791;SDS011;1911;53.768;11.474;2023-08-07T03:43:38;3.07;;;2.43;;
3791;SDS011;1911;53.768;11.474;2023-08-07T03:46:04;5.63;;;1.87;;
3791;SDS011;1911;53.768;11.474;2023-08-07T03:48:29;2.40;;;1.60;;
3791;SDS011;1911;53.768;11.474;2023-08-07T03:51:05;3.03;;;2.00;;
3791;SDS011;1911;53.768;11.474;2023-08-07T03:53:33;3.80;;;2.00;;
3791;SDS011;1911;53.768;11.474;2023-08-07T03:55:59;2.40;;;1.93;;
3791;SDS011;1911;53.768;11.474;2023-08-07T03:58:24;6.77;;;2.03;;
3791;SDS011;1911;53.768;11.474;2023-08-07T04:00:50;4.73;;;1.97;;
3791;SDS011;1911;53.768;11.474;2023-08-07T04:03:16;3.67;;;2.00;;
3791;SDS011;1911;53.768;11.474;2023-08-07T04:05:43;3.40;;;1.70;;
3791;SDS011;1911;53.768;11.474;2023-08-07T04:08:08;2.50;;;1.50;;
3791;SDS011;1911;53.768;11.474;2023-08-07T04:10:34;3.70;;;1.90;;
3791;SDS011;1911;53.768;11.474;2023-08-07T04:13:00;5.50;;;1.90;;
3791;SDS011;1911;53.768;11.474;2023-08-07T04:15:25;2.03;;;1.50;;
3791;SDS011;1911;53.768;11.474;2023-08-07T04:17:51;6.30;;;2.17;;
3791;SDS011;1911;53.768;11.474;2023-08-07T04:20:17;2.60;;;1.57;;
3791;SDS011;1911;53.768;11.474;2023-08-07T04:22:42;2.80;;;1.70;;
3791;SDS011;1911;53.768;11.474;2023-08-07T04:25:09;6.03;;;1.60;;
3791;SDS011;1911;53.768;11.474;2023-08-07T04:27:35;2.53;;;1.67;;
3791;SDS011;1911;53.768;11.474;2023-08-07T04:30:00;2.63;;;1.80;;
3791;SDS011;1911;53.768;11.474;2023-08-07T04:32:26;5.63;;;2.07;;
3791;SDS011;1911;53.768;11.474;2023-08-07T04:34:51;3.07;;;1.77;;
3791;SDS011;1911;53.768;11.474;2023-08-07T04:37:17;3.20;;;1.70;;
3791;SDS011;1911;53.768;11.474;2023-08-07T04:39:43;6.30;;;1.70;;
3791;SDS011;1911;53.768;11.474;2023-08-07T04:42:08;2.60;;;1.90;;
3791;SDS011;1911;53.768;11.474;2023-08-07T04:44:34;3.20;;;1.50;;
3791;SDS011;1911;53.768;11.474;2023-08-07T04:46:59;2.80;;;1.83;;
3791;SDS011;1911;53.768;11.474;2023-08-07T04:49:25;3.50;;;1.87;;
3791;SDS011;1911;53.768;11.474;2023-08-07T04:51:50;2.73;;;1.73;;
3791;SDS011;1911;53.768;11.474;2023-08-07T04:54:16;5.10;;;2.37;;
3791;SDS011;1911;53.768;11.474;2023-08-07T04:56:42;4.17;;;1.90;;
3791;SDS011;1911;53.768;11.474;2023-08-07T04:59:09;5.60;;;1.90;;
3791;SDS011;1911;53.768;11.474;2023-08-07T05:01:35;4.57;;;2.40;;
3791;SDS011;1911;53.768;11.474;2023-08-07T05:04:01;3.10;;;2.00;;
3791;SDS011;1911;53.768;11.474;2023-08-07T05:06:27;3.47;;;1.43;;
3791;SDS011;1911;53.768;11.474;2023-08-07T05:08:52;2.37;;;1.93;;
3791;SDS011;1911;53.768;11.474;2023-08-07T05:11:18;2.90;;;1.80;;
3791;SDS011;1911;53.768;11.474;2023-08-07T05:13:45;4.13;;;2.30;;
3791;SDS011;1911;53.768;11.474;2023-08-07T05:16:11;3.50;;;1.90;;
3791;SDS011;1911;53.768;11.474;2023-08-07T05:18:36;3.80;;;2.10;;
3791;SDS011;1911;53.768;11.474;2023-08-07T05:21:02;3.90;;;1.77;;
3791;SDS011;1911;53.768;11.474;2023-08-07T05:23:28;7.93;;;2.13;;
3791;SDS011;1911;53.768;11.474;2023-08-07T05:25:53;1.90;;;1.40;;
3791;SDS011;1911;53.768;11.474;2023-08-07T05:28:19;2.90;;;1.57;;
3791;SDS011;1911;53.768;11.474;2023-08-07T05:30:44;4.33;;;1.90;;
3791;SDS011;1911;53.768;11.474;2023-08-07T05:33:10;4.57;;;1.90;;
3791;SDS011;1911;53.768;11.474;2023-08-07T05:35:37;6.17;;;1.90;;
3791;SDS011;1911;53.768;11.474;2023-08-07T05:38:03;4.57;;;1.93;;
3791;SDS011;1911;53.768;11.474;2023-08-07T05:40:29;3.70;;;1.90;;
3791;SDS011;1911;53.768;11.474;2023-08-07T05:42:55;3.83;;;1.63;;
3791;SDS011;1911;53.768;11.474;2023-08-07T05:45:20;8.10;;;2.27;;
3791;SDS011;1911;53.768;11.474;2023-08-07T05:47:46;3.53;;;2.07;;
3791;SDS011;1911;53.768;11.474;2023-08-07T05:50:11;2.70;;;2.00;;
3791;SDS011;1911;53.768;11.474;2023-08-07T05:52:37;4.53;;;1.63;;
3791;SDS011;1911;53.768;11.474;2023-08-07T05:55:03;3.70;;;1.97;;
3791;SDS011;1911;53.768;11.474;2023-08-07T05:57:29;4.57;;;2.43;;
3791;SDS011;1911;53.768;11.474;2023-08-07T05:59:54;4.20;;;2.10;;
3791;SDS011;1911;53.768;11.474;2023-08-07T06:02:20;4.47;;;2.07;;
3791;SDS011;1911;53.768;11.474;2023-08-07T06:04:46;4.27;;;1.83;;
3791;SDS011;1911;53.768;11.474;2023-08-07T06:07:12;3.90;;;2.10;;
3791;SDS011;1911;53.768;11.474;2023-08-07T06:09:37;3.90;;;1.80;;
3791;SDS011;1911;53.768;11.474;2023-08-07T06:12:03;3.23;;;1.67;;
3791;SDS011;1911;53.768;11.474;2023-08-07T06:14:29;7.90;;;2.00;;
3791;SDS011;1911;53.768;11.474;2023-08-07T06:16:55;4.00;;;1.97;;
3791;SDS011;1911;53.768;11.474;2023-08-07T06:19:22;6.67;;;2.07;;
3791;SDS011;1911;53.768;11.474;2023-08-07T06:21:48;4.13;;;2.10;;
3791;SDS011;1911;53.768;11.474;2023-08-07T06:24:14;7.60;;;2.10;;
3791;SDS011;1911;53.768;11.474;2023-08-07T06:26:40;8.33;;;2.73;;
3791;SDS011;1911;53.768;11.474;2023-08-07T06:29:05;4.20;;;1.73;;
3791;SDS011;1911;53.768;11.474;2023-08-07T06:31:31;3.77;;;2.07;;
3791;SDS011;1911;53.768;11.474;2023-08-07T06:33:56;7.93;;;2.30;;
3791;SDS011;1911;53.768;11.474;2023-08-07T06:36:24;2.47;;;2.23;;
3791;SDS011;1911;53.768;11.474;2023-08-07T06:38:50;6.63;;;1.93;;
3791;SDS011;1911;53.768;11.474;2023-08-07T06:41:16;2.60;;;2.00;;
3791;SDS011;1911;53.768;11.474;2023-08-07T06:43:41;5.57;;;1.77;;
3791;SDS011;1911;53.768;11.474;2023-08-07T06:46:07;3.70;;;2.00;;
3791;SDS011;1911;53.768;11.474;2023-08-07T06:48:33;5.10;;;1.80;;
3791;SDS011;1911;53.768;11.474;2023-08-07T06:50:58;6.77;;;2.20;;
3791;SDS011;1911;53.768;11.474;2023-08-07T06:53:24;4.83;;;2.17;;
3791;SDS011;1911;53.768;11.474;2023-08-07T06:55:49;7.63;;;1.83;;
3791;SDS011;1911;53.768;11.474;2023-08-07T06:58:16;4.53;;;2.40;;
3791;SDS011;1911;53.768;11.474;2023-08-07T07:00:41;7.73;;;2.30;;
3791;SDS011;1911;53.768;11.474;2023-08-07T07:03:07;5.63;;;1.70;;
3791;SDS011;1911;53.768;11.474;2023-08-07T07:05:34;3.87;;;1.73;;
3791;SDS011;1911;53.768;11.474;2023-08-07T07:08:00;6.50;;;2.30;;
3791;SDS011;1911;53.768;11.474;2023-08-07T07:10:25;5.93;;;2.70;;
3791;SDS011;1911;53.768;11.474;2023-08-07T07:12:51;3.83;;;1.90;;
3791;SDS011;1911;53.768;11.474;2023-08-07T07:15:17;6.93;;;2.80;;
3791;SDS011;1911;53.768;11.474;2023-08-07T07:17:43;7.77;;;3.13;;
3791;SDS011;1911;53.768;11.474;2023-08-07T07:20:08;5.63;;;2.50;;
3791;SDS011;1911;53.768;11.474;2023-08-07T07:22:34;11.37;;;2.33;;
3791;SDS011;1911;53.768;11.474;2023-08-07T07:25:00;3.33;;;1.87;;
3791;SDS011;1911;53.768;11.474;2023-08-07T07:27:26;7.93;;;2.40;;
3791;SDS011;1911;53.768;11.474;2023-08-07T07:29:51;4.20;;;2.23;;
3791;SDS011;1911;53.768;11.474;2023-08-07T07:32:17;11.57;;;2.40;;
3791;SDS011;1911;53.768;11.474;2023-08-07T07:34:43;4.60;;;2.10;;
3791;SDS011;1911;53.768;11.474;2023-08-07T07:37:09;7.07;;;2.60;;
3791;SDS011;1911;53.768;11.474;2023-08-07T07:39:35;11.50;;;2.57;;
3791;SDS011;1911;53.768;11.474;2023-08-07T07:42:00;13.93;;;2.97;;
3791;SDS011;1911;53.768;11.474;2023-08-07T07:44:26;7.33;;;3.07;;
3791;SDS011;1911;53.768;11.474;2023-08-07T07:46:52;8.83;;;2.43;;
3791;SDS011;1911;53.768;11.474;2023-08-07T07:49:17;7.87;;;2.40;;
3791;SDS011;1911;53.768;11.474;2023-08-07T07:51:43;9.30;;;2.27;;
3791;SDS011;1911;53.768;11.474;2023-08-07T07:54:09;4.63;;;1.97;;
3791;SDS011;1911;53.768;11.474;2023-08-07T07:56:35;8.43;;;3.07;;
3791;SDS011;1911;53.768;11.474;2023-08-07T07:59:01;10.17;;;3.00;;
3791;SDS011;1911;53.768;11.474;2023-08-07T08:01:26;8.20;;;2.90;;
3791;SDS011;1911;53.768;11.474;2023-08-07T08:03:53;11.80;;;2.80;;
3791;SDS011;1911;53.768;11.474;2023-08-07T08:06:18;10.20;;;2.53;;
3791;SDS011;1911;53.768;11.474;2023-08-07T08:08:44;11.67;;;2.43;;
3791;SDS011;1911;53.768;11.474;2023-08-07T08:11:10;6.57;;;2.23;;
3791;SDS011;1911;53.768;11.474;2023-08-07T08:13:35;7.07;;;2.20;;
3791;SDS011;1911;53.768;11.474;2023-08-07T08:16:03;7.30;;;2.87;;
3791;SDS011;1911;53.768;11.474;2023-08-07T08:18:29;9.97;;;2.97;;
3791;SDS011;1911;53.768;11.474;2023-08-07T08:20:55;8.20;;;2.77;;
3791;SDS011;1911;53.768;11.474;2023-08-07T08:23:20;8.27;;;3.90;;
3791;SDS011;1911;53.768;11.474;2023-08-07T08:25:46;7.37;;;2.70;;
3791;SDS011;1911;53.768;11.474;2023-08-07T08:28:13;12.57;;;3.10;;
3791;SDS011;1911;53.768;11.474;2023-08-07T08:30:38;8.60;;;2.60;;
3791;SDS011;1911;53.768;11.474;2023-08-07T08:33:04;12.50;;;2.60;;
3791;SDS011;1911;53.768;11.474;2023-08-07T08:35:30;7.00;;;2.47;;
3791;SDS011;1911;53.768;11.474;2023-08-07T08:37:56;5.40;;;2.40;;
3791;SDS011;1911;53.768;11.474;2023-08-07T08:40:22;9.10;;;3.03;;
3791;SDS011;1911;53.768;11.474;2023-08-07T08:42:49;8.00;;;2.70;;
3791;SDS011;1911;53.768;11.474;2023-08-07T08:45:16;5.90;;;2.37;;
3791;SDS011;1911;53.768;11.474;2023-08-07T08:47:43;5.23;;;2.90;;
3791;SDS011;1911;53.768;11.474;2023-08-07T08:50:12;8.00;;;2.60;;
3791;SDS011;1911;53.768;11.474;2023-08-07T08:52:41;7.07;;;3.17;;
3791;SDS011;1911;53.768;11.474;2023-08-07T08:55:09;7.27;;;2.57;;
3791;SDS011;1911;53.768;11.474;2023-08-07T08:57:35;9.03;;;3.33;;
3791;SDS011;1911;53.768;11.474;2023-08-07T09:00:02;13.33;;;3.40;;
3791;SDS011;1911;53.768;11.474;2023-08-07T09:02:39;12.57;;;4.17;;
3791;SDS011;1911;53.768;11.474;2023-08-07T09:05:05;8.47;;;3.00;;
3791;SDS011;1911;53.768;11.474;2023-08-07T09:07:31;10.83;;;2.90;;
3791;SDS011;1911;53.768;11.474;2023-08-07T09:09:57;11.73;;;3.33;;
3791;SDS011;1911;53.768;11.474;2023-08-07T09:12:25;8.80;;;3.10;;
3791;SDS011;1911;53.768;11.474;2023-08-07T09:14:54;10.23;;;2.93;;
3791;SDS011;1911;53.768;11.474;2023-08-07T09:17:23;6.00;;;3.00;;
3791;SDS011;1911;53.768;11.474;2023-08-07T09:19:52;18.33;;;2.67;;
3791;SDS011;1911;53.768;11.474;2023-08-07T09:22:18;15.43;;;3.37;;
3791;SDS011;1911;53.768;11.474;2023-08-07T09:24:44;6.80;;;2.93;;
3791;SDS011;1911;53.768;11.474;2023-08-07T09:27:10;8.13;;;3.47;;
3791;SDS011;1911;53.768;11.474;2023-08-07T09:29:36;5.87;;;3.10;;
3791;SDS011;1911;53.768;11.474;2023-08-07T09:32:22;8.97;;;2.77;;
3791;SDS011;1911;53.768;11.474;2023-08-07T09:34:49;10.43;;;3.10;;
3791;SDS011;1911;53.768;11.474;2023-08-07T09:37:15;8.60;;;2.53;;
3791;SDS011;1911;53.768;11.474;2023-08-07T09:39:41;6.77;;;2.80;;
3791;SDS011;1911;53.768;11.474;2023-08-07T09:42:13;10.00;;;3.53;;
3791;SDS011;1911;53.768;11.474;2023-08-07T09:44:42;4.43;;;2.30;;
3791;SDS011;1911;53.768;11.474;2023-08-07T09:47:16;11.50;;;3.10;;
3791;SDS011;1911;53.768;11.474;2023-08-07T09:49:43;6.20;;;2.60;;
3791;SDS011;1911;53.768;11.474;2023-08-07T09:52:10;13.90;;;2.70;;
3791;SDS011;1911;53.768;11.474;2023-08-07T09:54:39;7.83;;;2.80;;
3791;SDS011;1911;53.768;11.474;2023-08-07T09:57:05;7.37;;;2.80;;
3791;SDS011;1911;53.768;11.474;2023-08-07T09:59:32;9.00;;;2.57;;
3791;SDS011;1911;53.768;11.474;2023-08-07T10:02:01;6.83;;;2.40;;
3791;SDS011;1911;53.768;11.474;2023-08-07T10:04:27;5.63;;;2.00;;
3791;SDS011;1911;53.768;11.474;2023-08-07T10:06:53;9.27;;;2.50;;
3791;SDS011;1911;53.768;11.474;2023-08-07T10:09:19;5.70;;;2.10;;
3791;SDS011;1911;53.768;11.474;2023-08-07T10:11:46;9.70;;;2.50;;
3791;SDS011;1911;53.768;11.474;2023-08-07T10:14:12;7.30;;;2.90;;
3791;SDS011;1911;53.768;11.474;2023-08-07T10:16:38;7.20;;;2.57;;
3791;SDS011;1911;53.768;11.474;2023-08-07T10:19:06;5.07;;;2.30;;
3791;SDS011;1911;53.768;11.474;2023-08-07T10:21:33;7.23;;;2.57;;
3791;SDS011;1911;53.768;11.474;2023-08-07T10:24:03;5.70;;;2.13;;
3791;SDS011;1911;53.768;11.474;2023-08-07T10:26:29;8.40;;;2.63;;
3791;SDS011;1911;53.768;11.474;2023-08-07T10:28:57;6.30;;;2.60;;
3791;SDS011;1911;53.768;11.474;2023-08-07T10:31:25;12.53;;;2.67;;
3791;SDS011;1911;53.768;11.474;2023-08-07T10:33:52;7.40;;;2.87;;
3791;SDS011;1911;53.768;11.474;2023-08-07T10:36:18;7.13;;;2.40;;
3791;SDS011;1911;53.768;11.474;2023-08-07T10:38:44;5.73;;;2.20;;
3791;SDS011;1911;53.768;11.474;2023-08-07T10:41:10;7.47;;;2.30;;
3791;SDS011;1911;53.768;11.474;2023-08-07T10:43:42;7.43;;;2.80;;
3791;SDS011;1911;53.768;11.474;2023-08-07T10:46:10;11.73;;;3.80;;
3791;SDS011;1911;53.768;11.474;2023-08-07T10:48:37;8.67;;;2.90;;
3791;SDS011;1911;53.768;11.474;2023-08-07T10:51:07;10.40;;;2.57;;
3791;SDS011;1911;53.768;11.474;2023-08-07T10:53:37;7.20;;;2.47;;
3791;SDS011;1911;53.768;11.474;2023-08-07T10:56:08;7.70;;;2.30;;
3791;SDS011;1911;53.768;11.474;2023-08-07T10:58:35;9.97;;;3.50;;
3791;SDS011;1911;53.768;11.474;2023-08-07T11:03:58;13.03;;;2.73;;
3791;SDS011;1911;53.768;11.474;2023-08-07T11:06:26;12.90;;;2.50;;
3791;SDS011;1911;53.768;11.474;2023-08-07T11:08:55;4.90;;;2.43;;
3791;SDS011;1911;53.768;11.474;2023-08-07T11:11:21;6.90;;;2.40;;
3791;SDS011;1911;53.768;11.474;2023-08-07T11:13:47;9.87;;;2.13;;
3791;SDS011;1911;53.768;11.474;2023-08-07T11:16:13;10.60;;;3.77;;
3791;SDS011;1911;53.768;11.474;2023-08-07T11:18:38;8.70;;;1.53;;
3791;SDS011;1911;53.768;11.474;2023-08-07T11:21:10;10.17;;;2.90;;
3791;SDS011;1911;53.768;11.474;2023-08-07T11:23:37;8.90;;;2.53;;
3791;SDS011;1911;53.768;11.474;2023-08-07T11:26:03;5.97;;;2.17;;
3791;SDS011;1911;53.768;11.474;2023-08-07T11:28:29;13.93;;;2.50;;
3791;SDS011;1911;53.768;11.474;2023-08-07T11:30:54;10.17;;;4.10;;
3791;SDS011;1911;53.768;11.474;2023-08-07T11:33:21;10.40;;;2.67;;
3791;SDS011;1911;53.768;11.474;2023-08-07T11:35:48;7.63;;;2.43;;
3791;SDS011;1911;53.768;11.474;2023-08-07T11:38:28;7.70;;;2.27;;
3791;SDS011;1911;53.768;11.474;2023-08-07T11:41:05;9.30;;;2.10;;
3791;SDS011;1911;53.768;11.474;2023-08-07T11:43:35;3.70;;;1.67;;
3791;SDS011;1911;53.768;11.474;2023-08-07T11:46:02;13.43;;;2.33;;
3791;SDS011;1911;53.768;11.474;2023-08-07T11:48:33;9.70;;;2.23;;
3791;SDS011;1911;53.768;11.474;2023-08-07T11:51:00;8.40;;;2.77;;
3791;SDS011;1911;53.768;11.474;2023-08-07T11:53:28;12.67;;;3.10;;
3791;SDS011;1911;53.768;11.474;2023-08-07T11:55:55;7.57;;;2.50;;
3791;SDS011;1911;53.768;11.474;2023-08-07T11:58:24;4.20;;;1.80;;
3791;SDS011;1911;53.768;11.474;2023-08-07T12:00:50;8.67;;;3.20;;
3791;SDS011;1911;53.768;11.474;2023-08-07T12:03:23;8.23;;;3.00;;
3791;SDS011;1911;53.768;11.474;2023-08-07T12:06:03;6.57;;;2.40;;
3791;SDS011;1911;53.768;11.474;2023-08-07T12:08:37;13.47;;;3.00;;
3791;SDS011;1911;53.768;11.474;2023-08-07T12:11:04;7.07;;;2.47;;
3791;SDS011;1911;53.768;11.474;2023-08-07T12:13:31;7.83;;;2.37;;
3791;SDS011;1911;53.768;11.474;2023-08-07T12:16:01;6.10;;;2.10;;
3791;SDS011;1911;53.768;11.474;2023-08-07T12:18:29;4.43;;;1.80;;
3791;SDS011;1911;53.768;11.474;2023-08-07T12:20:59;12.73;;;2.57;;
3791;SDS011;1911;53.768;11.474;2023-08-07T12:23:26;8.63;;;2.20;;
3791;SDS011;1911;53.768;11.474;2023-08-07T12:25:52;8.83;;;2.37;;
3791;SDS011;1911;53.768;11.474;2023-08-07T12:28:18;12.30;;;2.67;;
3791;SDS011;1911;53.768;11.474;2023-08-07T12:30:44;11.13;;;3.20;;
3791;SDS011;1911;53.768;11.474;2023-08-07T12:33:11;12.37;;;2.87;;
3791;SDS011;1911;53.768;11.474;2023-08-07T12:35:37;6.03;;;2.10;;
3791;SDS011;1911;53.768;11.474;2023-08-07T12:38:04;25.50;;;4.83;;
3791;SDS011;1911;53.768;11.474;2023-08-07T12:40:30;5.77;;;2.57;;
3791;SDS011;1911;53.768;11.474;2023-08-07T12:42:56;8.60;;;2.37;;
3791;SDS011;1911;53.768;11.474;2023-08-07T12:45:23;6.17;;;1.47;;
3791;SDS011;1911;53.768;11.474;2023-08-07T12:47:48;4.77;;;1.67;;
3791;SDS011;1911;53.768;11.474;2023-08-07T12:50:14;5.47;;;2.00;;
3791;SDS011;1911;53.768;11.474;2023-08-07T12:52:40;5.77;;;2.03;;
3791;SDS011;1911;53.768;11.474;2023-08-07T12:55:05;9.20;;;2.23;;
3791;SDS011;1911;53.768;11.474;2023-08-07T12:57:32;7.00;;;2.10;;
3791;SDS011;1911;53.768;11.474;2023-08-07T12:59:57;6.93;;;2.77;;
3791;SDS011;1911;53.768;11.474;2023-08-07T13:02:23;6.27;;;2.07;;
3791;SDS011;1911;53.768;11.474;2023-08-07T13:04:48;9.23;;;1.60;;
3791;SDS011;1911;53.768;11.474;2023-08-07T13:07:15;8.77;;;2.50;;
3791;SDS011;1911;53.768;11.474;2023-08-07T13:09:41;5.47;;;2.10;;
3791;SDS011;1911;53.768;11.474;2023-08-07T13:12:07;5.97;;;1.67;;
3791;SDS011;1911;53.768;11.474;2023-08-07T13:14:33;11.33;;;2.07;;
3791;SDS011;1911;53.768;11.474;2023-08-07T13:16:58;12.23;;;2.57;;
3791;SDS011;1911;53.768;11.474;2023-08-07T13:19:24;4.20;;;1.63;;
3791;SDS011;1911;53.768;11.474;2023-08-07T13:21:49;7.37;;;1.97;;
3791;SDS011;1911;53.768;11.474;2023-08-07T13:24:15;7.13;;;2.20;;
3791;SDS011;1911;53.768;11.474;2023-08-07T13:26:40;4.47;;;1.40;;
3791;SDS011;1911;53.768;11.474;2023-08-07T13:29:12;3.80;;;1.40;;
3791;SDS011;1911;53.768;11.474;2023-08-07T13:31:39;6.80;;;1.63;;
3791;SDS011;1911;53.768;11.474;2023-08-07T13:34:10;7.50;;;1.63;;
3791;SDS011;1911;53.768;11.474;2023-08-07T13:36:36;4.80;;;1.90;;
3791;SDS011;1911;53.768;11.474;2023-08-07T13:39:03;5.60;;;1.53;;
3791;SDS011;1911;53.768;11.474;2023-08-07T13:41:30;2.93;;;1.23;;
3791;SDS011;1911;53.768;11.474;2023-08-07T13:43:55;4.93;;;1.60;;
3791;SDS011;1911;53.768;11.474;2023-08-07T13:46:21;3.90;;;1.77;;
3791;SDS011;1911;53.768;11.474;2023-08-07T13:48:47;3.97;;;1.40;;
3791;SDS011;1911;53.768;11.474;2023-08-07T13:51:16;5.23;;;2.03;;
3791;SDS011;1911;53.768;11.474;2023-08-07T13:53:43;9.20;;;1.57;;
3791;SDS011;1911;53.768;11.474;2023-08-07T13:56:08;7.37;;;2.03;;
3791;SDS011;1911;53.768;11.474;2023-08-07T13:58:37;4.60;;;1.60;;
3791;SDS011;1911;53.768;11.474;2023-08-07T14:01:07;8.10;;;1.93;;
3791;SDS011;1911;53.768;11.474;2023-08-07T14:03:33;4.97;;;2.10;;
3791;SDS011;1911;53.768;11.474;2023-08-07T14:05:59;3.90;;;1.33;;
3791;SDS011;1911;53.768;11.474;2023-08-07T14:08:25;4.20;;;1.60;;
3791;SDS011;1911;53.768;11.474;2023-08-07T14:10:50;10.20;;;1.93;;
3791;SDS011;1911;53.768;11.474;2023-08-07T14:13:16;4.33;;;1.40;;
3791;SDS011;1911;53.768;11.474;2023-08-07T14:15:41;4.37;;;1.60;;
3791;SDS011;1911;53.768;11.474;2023-08-07T14:18:07;6.57;;;2.33;;
3791;SDS011;1911;53.768;11.474;2023-08-07T14:20:33;5.23;;;1.87;;
3791;SDS011;1911;53.768;11.474;2023-08-07T14:22:59;7.43;;;2.40;;
3791;SDS011;1911;53.768;11.474;2023-08-07T14:25:24;5.20;;;1.60;;
3791;SDS011;1911;53.768;11.474;2023-08-07T14:27:50;5.37;;;1.90;;
3791;SDS011;1911;53.768;11.474;2023-08-07T14:30:16;7.77;;;2.70;;
3791;SDS011;1911;53.768;11.474;2023-08-07T14:32:41;4.97;;;1.60;;
3791;SDS011;1911;53.768;11.474;2023-08-07T14:35:07;5.03;;;1.60;;
3791;SDS011;1911;53.768;11.474;2023-08-07T14:37:34;2.67;;;1.27;;
3791;SDS011;1911;53.768;11.474;2023-08-07T14:39:59;3.23;;;1.17;;
3791;SDS011;1911;53.768;11.474;2023-08-07T14:42:26;8.60;;;1.70;;
3791;SDS011;1911;53.768;11.474;2023-08-07T14:44:52;3.13;;;1.43;;
3791;SDS011;1911;53.768;11.474;2023-08-07T14:47:18;5.60;;;1.87;;
3791;SDS011;1911;53.768;11.474;2023-08-07T14:49:43;5.67;;;1.87;;
3791;SDS011;1911;53.768;11.474;2023-08-07T14:52:09;12.00;;;2.10;;
3791;SDS011;1911;53.768;11.474;2023-08-07T14:54:34;7.37;;;1.87;;
3791;SDS011;1911;53.768;11.474;2023-08-07T14:57:00;5.47;;;1.57;;
3791;SDS011;1911;53.768;11.474;2023-08-07T14:59:26;3.73;;;1.30;;
3791;SDS011;1911;53.768;11.474;2023-08-07T15:01:51;4.10;;;1.30;;
3791;SDS011;1911;53.768;11.474;2023-08-07T15:04:17;6.40;;;1.90;;
3791;SDS011;1911;53.768;11.474;2023-08-07T15:06:42;3.30;;;1.73;;